Time;durP1;ratioP1;P1;durP2;ratioP2;P2;SDS_P1;SDS_P2;PMS_P1;PMS_P2;Temp;Humidity;BMP_temperature;BMP_pressure;BME280_temperature;BME280_humidity;BME280_pressure;Samples;Min_cycle;Max_cycle;Signal;HPM_P1;HPM_P2
2021/03/23 00:00:30;;;;;;;15.25;7.65;;;-0.10;99.90;;;-0.46;80.94;98105.19;172627;28;873;-71
2021/03/23 00:00:46;;;;;;;15.50;8.09;;;-0.10;99.90;;;-0.55;80.84;98095.25;160778;28;345110;-71
2021/03/23 00:01:05;;;;;;;14.06;8.32;;;-0.10;99.90;;;-0.53;80.67;98109.22;159461;28;346759;-71
2021/03/23 00:01:17;;;;;;;14.20;8.85;;;-0.10;99.90;;;-0.60;80.41;98102.63;159633;29;321655;-71
2021/03/23 00:01:23;;;;;;;16.67;9.39;;;-0.10;99.90;;;-0.60;80.29;98097.34;160058;28;346617;-71
2021/03/23 00:01:30;;;;;;;17.30;9.13;;;-0.20;99.90;;;-0.55;80.28;98111.09;172604;28;910;-71
2021/03/23 00:01:37;;;;;;;18.56;9.38;;;-0.10;99.90;;;-0.57;80.49;98105.91;169580;28;62412;-71
2021/03/23 00:01:43;;;;;;;18.27;9.30;;;-0.20;99.90;;;-0.54;80.37;98108.38;171875;28;1400;-71
2021/03/23 00:01:49;;;;;;;17.85;9.10;;;-0.20;99.90;;;-0.54;80.33;98102.22;171941;28;982;-71
2021/03/23 00:01:55;;;;;;;17.33;8.95;;;-0.20;99.90;;;-0.58;80.26;98098.09;171927;28;954;-71
2021/03/23 00:02:02;;;;;;;17.90;9.15;;;-0.10;99.90;;;-0.60;80.44;98092.91;172031;28;934;-71
2021/03/23 00:02:10;;;;;;;16.72;8.96;;;-0.10;99.90;;;-0.51;80.61;98112.59;168942;28;61559;-70
2021/03/23 00:02:16;;;;;;;17.68;9.12;;;-0.10;99.90;;;-0.55;80.47;98100.53;166845;28;125021;-71
2021/03/23 00:02:22;;;;;;;18.38;9.43;;;-0.10;99.90;;;-0.49;80.76;98110.69;172522;28;879;-71
2021/03/23 00:02:28;;;;;;;18.10;9.52;;;-0.10;99.90;;;-0.47;80.59;98108.81;171855;28;947;-71
2021/03/23 00:02:34;;;;;;;18.15;9.13;;;-0.10;99.90;;;-0.50;81.03;98096.63;171993;28;859;-71
2021/03/23 00:02:40;;;;;;;17.80;8.77;;;-0.10;99.90;;;-0.46;80.76;98106.03;171190;28;994;-71
2021/03/23 00:03:00;;;;;;;17.15;9.00;;;-0.10;99.90;;;-0.47;80.86;98099.06;170619;29;982;-71
2021/03/23 00:03:24;;;;;;;16.33;8.80;;;-0.10;99.90;;;-0.47;80.97;98103.53;160298;28;321868;-71
2021/03/23 00:03:43;;;;;;;16.13;8.91;;;-0.10;99.90;;;-0.46;81.33;98094.63;160205;28;321909;-71
2021/03/23 00:03:52;;;;;;;16.74;9.09;;;-0.10;99.90;;;-0.43;81.64;98099.72;161988;28;322784;-71
2021/03/23 00:03:58;;;;;;;17.38;9.18;;;-0.10;99.90;;;-0.43;81.84;98094.41;168282;28;125061;-71
2021/03/23 00:04:05;;;;;;;17.33;9.13;;;-0.10;99.90;;;-0.36;81.64;98102.78;173043;28;1621;-71
2021/03/23 00:04:13;;;;;;;15.94;8.80;;;-0.10;99.90;;;-0.37;81.57;98101.09;169962;28;59448;-71
2021/03/23 00:04:19;;;;;;;15.60;8.70;;;-0.10;99.90;;;-0.33;81.63;98107.88;168369;28;125196;-71
2021/03/23 00:04:25;;;;;;;15.73;8.68;;;-0.10;99.90;;;-0.32;81.66;98110.41;172520;28;1138;-71
2021/03/23 00:04:31;;;;;;;15.13;8.53;;;-0.10;99.90;;;-0.36;81.88;98100.16;172452;28;1458;-71
2021/03/23 00:04:37;;;;;;;15.60;8.63;;;-0.10;99.90;;;-0.33;81.44;98105.22;173327;28;1053;-71
2021/03/23 00:04:43;;;;;;;15.68;8.70;;;-0.10;99.90;;;-0.37;81.36;98099.31;172445;28;950;-71
2021/03/23 00:04:49;;;;;;;15.07;8.98;;;0.00;99.90;;;-0.41;81.40;98102.25;171950;28;879;-71
2021/03/23 00:04:55;;;;;;;14.44;8.82;;;-0.10;99.90;;;-0.40;81.33;98096.84;171328;28;59016;-71
2021/03/23 00:05:06;;;;;;;14.63;8.88;;;-0.10;99.90;;;-0.36;81.57;98110.72;172207;28;1288;-71
2021/03/23 00:05:12;;;;;;;14.68;8.80;;;-0.10;99.90;;;-0.43;81.57;98091.78;161521;28;323380;-70
2021/03/23 00:05:19;;;;;;;14.88;8.73;;;-0.10;99.90;;;-0.40;81.43;98101.28;171349;28;967;-71
2021/03/23 00:05:25;;;;;;;16.17;8.97;;;-0.10;99.90;;;-0.36;81.94;98108.91;173289;28;1531;-71
2021/03/23 00:05:31;;;;;;;16.57;9.10;;;-0.10;99.90;;;-0.35;81.66;98110.59;173194;28;1295;-71
2021/03/23 00:05:38;;;;;;;16.30;9.13;;;-0.10;99.90;;;-0.34;81.75;98109.66;173117;28;1188;-71
2021/03/23 00:05:44;;;;;;;15.93;9.23;;;-0.10;99.90;;;-0.39;82.10;98103.84;171985;28;943;-71
2021/03/23 00:05:51;;;;;;;17.34;9.20;;;-0.10;99.90;;;-0.35;81.94;98102.66;171210;28;62103;-71
2021/03/23 00:05:58;;;;;;;16.98;9.15;;;-0.10;99.90;;;-0.34;81.76;98104.38;172454;28;1991;-71
2021/03/23 00:06:06;;;;;;;16.23;8.77;;;-0.10;99.90;;;-0.32;81.83;98110.41;171304;28;930;-71
2021/03/23 00:06:19;;;;;;;16.00;8.80;;;-0.10;99.90;;;-0.36;81.96;98094.88;170647;29;1044;-71
2021/03/23 00:06:29;;;;;;;15.13;8.82;;;-0.10;99.90;;;-0.32;81.99;98104.28;164675;28;213569;-71
2021/03/23 00:06:34;;;;;;;14.94;9.21;;;-0.10;99.90;;;-0.33;82.11;98108.72;163226;28;256440;-71
2021/03/23 00:06:40;;;;;;;16.45;9.25;;;0.00;99.90;;;-0.34;81.98;98101.72;172653;28;882;-71
2021/03/23 00:06:46;;;;;;;17.73;9.15;;;-0.10;99.90;;;-0.35;82.25;98097.38;171903;28;1568;-70
2021/03/23 00:06:52;;;;;;;18.10;9.00;;;0.00;99.90;;;-0.37;82.12;98099.31;174595;28;1856;-71
2021/03/23 00:06:58;;;;;;;18.42;9.02;;;-0.10;99.90;;;-0.34;81.70;98104.38;172826;28;1761;-71
2021/03/23 00:07:05;;;;;;;18.60;8.73;;;0.00;99.90;;;-0.38;81.81;98102.88;172598;28;1231;-70
2021/03/23 00:07:11;;;;;;;17.90;8.85;;;-0.10;99.90;;;-0.36;82.00;98100.97;172539;28;937;-71
2021/03/23 00:07:16;;;;;;;16.60;8.88;;;-0.10;99.90;;;-0.34;81.69;98104.38;172212;28;1183;-71
2021/03/23 00:07:22;;;;;;;16.83;9.07;;;0.00;99.90;;;-0.30;81.60;98099.72;173208;28;1224;-71
2021/03/23 00:07:28;;;;;;;16.55;9.05;;;-0.10;99.90;;;-0.36;81.91;98095.69;173234;28;1334;-71
2021/03/23 00:07:34;;;;;;;17.08;9.60;;;-0.10;99.90;;;-0.27;81.95;98112.75;173043;28;1378;-70
2021/03/23 00:07:40;;;;;;;17.05;9.70;;;-0.10;99.90;;;-0.30;82.02;98105.84;173819;28;1506;-71
2021/03/23 00:07:46;;;;;;;16.85;9.80;;;-0.10;99.90;;;-0.33;81.85;98099.94;171654;28;929;-70
2021/03/23 00:07:53;;;;;;;16.83;9.93;;;-0.10;99.90;;;-0.32;81.68;98101.63;173383;28;1008;-71
2021/03/23 00:07:59;;;;;;;18.00;10.17;;;0.00;99.90;;;-0.28;81.51;98106.59;171199;28;1309;-71
2021/03/23 00:08:36;;;;;;;17.43;9.97;;;0.00;99.90;;;-0.28;81.18;98109.25;171304;28;843;-71
2021/03/23 00:09:02;;;;;;;17.84;9.65;;;0.00;99.90;;;-0.34;81.05;98106.16;159455;29;321707;-70
2021/03/23 00:09:08;;;;;;;17.95;9.65;;;0.00;99.90;;;-0.39;80.75;98106.47;159577;29;325430;-71
2021/03/23 00:09:16;;;;;;;16.73;9.70;;;0.00;99.90;;;-0.41;80.69;98108.38;171132;28;918;-71
2021/03/23 00:09:22;;;;;;;17.27;9.83;;;0.00;99.90;;;-0.41;80.79;98108.38;168277;28;127938;-71
2021/03/23 00:09:28;;;;;;;17.90;9.88;;;-0.10;99.90;;;-0.39;80.89;98113.56;173253;28;1029;-71
2021/03/23 00:09:34;;;;;;;17.48;10.00;;;-0.10;99.90;;;-0.43;80.97;98110.28;173158;28;1144;-71
2021/03/23 00:09:40;;;;;;;17.13;10.05;;;-0.10;99.90;;;-0.45;80.84;98101.59;171960;28;926;-71
2021/03/23 00:09:46;;;;;;;17.83;10.23;;;-0.10;99.90;;;-0.47;80.64;98100.88;171362;28;1005;-70
2021/03/23 00:09:52;;;;;;;17.45;10.02;;;-0.10;99.90;;;-0.45;80.83;98106.88;173315;28;1040;-71
2021/03/23 00:09:58;;;;;;;16.43;9.80;;;-0.10;99.90;;;-0.46;80.95;98107.84;171855;28;1744;-70
2021/03/23 00:10:05;;;;;;;16.60;9.60;;;-0.10;99.90;;;-0.45;80.88;98115.69;171464;28;1436;-71
2021/03/23 00:10:13;;;;;;;18.63;9.53;;;-0.10;99.90;;;-0.48;81.22;98107.97;171991;28;1104;-71
2021/03/23 00:10:27;;;;;;;17.83;9.27;;;-0.10;99.90;;;-0.44;81.31;98109.44;171885;28;863;-71
2021/03/23 00:10:34;;;;;;;18.91;9.45;;;-0.10;99.90;;;-0.44;81.67;98114.72;161556;28;322037;-71
2021/03/23 00:10:40;;;;;;;17.58;9.54;;;-0.10;99.90;;;-0.53;81.64;98088.91;169267;28;59959;-71
2021/03/23 00:10:46;;;;;;;18.23;9.73;;;-0.10;99.90;;;-0.46;81.45;98110.47;171541;28;1193;-70
2021/03/23 00:10:55;;;;;;;18.48;10.35;;;-0.10;99.90;;;-0.41;82.21;98105.72;172269;28;1217;-71
2021/03/23 00:11:08;;;;;;;17.79;10.41;;;-0.10;99.90;;;-0.42;81.85;98106.69;164418;28;195543;-71
2021/03/23 00:11:21;;;;;;;17.51;10.38;;;-0.10;99.90;;;-0.41;81.69;98113.66;159904;28;335978;-71
2021/03/23 00:11:39;;;;;;;17.08;9.99;;;-0.10;99.90;;;-0.45;81.58;98104.25;160184;28;350101;-71
2021/03/23 00:11:45;;;;;;;16.06;9.73;;;-0.10;99.90;;;-0.44;81.22;98113.88;161495;28;322017;-71
2021/03/23 00:11:51;;;;;;;16.92;9.65;;;-0.20;99.90;;;-0.41;81.06;98112.84;172671;28;831;-71
2021/03/23 00:11:57;;;;;;;16.73;9.60;;;-0.10;99.90;;;-0.45;81.32;98106.88;173364;28;965;-71
2021/03/23 00:12:04;;;;;;;17.23;9.65;;;-0.10;99.90;;;-0.44;81.20;98113.88;171303;28;842;-71
2021/03/23 00:12:10;;;;;;;17.23;9.50;;;-0.10;99.90;;;-0.45;80.99;98112.19;171169;28;1340;-71
2021/03/23 00:12:16;;;;;;;16.03;9.40;;;-0.20;99.90;;;-0.46;80.94;98111.34;171062;28;1272;-71
2021/03/23 00:12:22;;;;;;;14.95;9.35;;;-0.20;99.90;;;-0.49;80.81;98105.41;170369;29;1289;-71
2021/03/23 00:12:28;;;;;;;15.98;9.57;;;-0.20;99.90;;;-0.49;80.97;98110.69;171202;28;1206;-71
2021/03/23 00:12:36;;;;;;;15.95;9.63;;;-0.20;99.90;;;-0.53;81.47;98110.06;171174;28;1204;-71
2021/03/23 00:12:42;;;;;;;16.00;9.42;;;-0.20;99.90;;;-0.53;81.46;98107.44;167619;28;127741;-71
2021/03/23 00:12:49;;;;;;;17.92;9.52;;;-0.20;99.90;;;-0.50;81.68;98109.00;172486;28;1285;-71
2021/03/23 00:12:56;;;;;;;16.94;9.10;;;-0.20;99.90;;;-0.58;81.84;98098.09;169832;28;59494;-71
2021/03/23 00:13:02;;;;;;;15.47;8.73;;;-0.20;99.90;;;-0.49;81.74;98108.06;171168;28;824;-71
2021/03/23 00:13:08;;;;;;;15.43;8.77;;;-0.20;99.90;;;-0.42;81.82;98112.00;170164;28;1822;-71
2021/03/23 00:13:14;;;;;;;14.98;8.93;;;-0.20;99.90;;;-0.41;81.88;98112.84;171133;28;1056;-71
2021/03/23 00:13:20;;;;;;;13.18;8.82;;;-0.10;99.90;;;-0.41;82.04;98110.19;171924;28;982;-71
2021/03/23 00:13:26;;;;;;;13.30;9.07;;;-0.20;99.90;;;-0.43;81.91;98107.66;171059;28;24507;-71
2021/03/23 00:13:33;;;;;;;14.30;9.23;;;-0.20;99.90;;;-0.44;81.93;98109.44;172633;28;934;-71
2021/03/23 00:13:45;;;;;;;14.73;9.10;;;-0.20;99.90;;;-0.44;81.29;98111.25;172649;28;844;-71
2021/03/23 00:13:53;;;;;;;16.10;9.38;;;-0.20;99.90;;;-0.51;81.31;98108.16;160055;28;322329;-71
2021/03/23 00:14:04;;;;;;;18.23;9.80;;;-0.10;99.90;;;-0.51;81.33;98112.59;170649;29;951;-71
2021/03/23 00:14:13;;;;;;;17.88;10.07;;;-0.10;99.90;;;-0.53;81.12;98114.50;161097;28;329255;-71
2021/03/23 00:14:19;;;;;;;17.10;10.04;;;-0.20;99.90;;;-0.54;80.68;98118.94;163428;28;261697;-71
2021/03/23 00:14:25;;;;;;;16.08;9.90;;;-0.20;99.90;;;-0.53;80.96;98111.88;172563;28;887;-70
2021/03/23 00:14:31;;;;;;;15.53;9.73;;;-0.20;99.90;;;-0.54;81.29;98111.00;171366;28;882;-71
2021/03/23 00:14:37;;;;;;;15.80;9.77;;;-0.20;99.90;;;-0.53;81.41;98115.34;171305;28;825;-71
2021/03/23 00:14:43;;;;;;;15.70;9.50;;;-0.20;99.90;;;-0.51;81.08;98117.88;171227;28;916;-71
2021/03/23 00:14:49;;;;;;;15.23;9.23;;;-0.20;99.90;;;-0.51;81.02;98121.38;172543;28;1228;-71
2021/03/23 00:14:55;;;;;;;15.13;9.03;;;-0.20;99.90;;;-0.58;81.16;98112.19;172636;28;991;-71
2021/03/23 00:15:01;;;;;;;15.35;8.95;;;-0.20;99.90;;;-0.49;81.32;98129.22;171808;28;891;-71
2021/03/23 00:15:10;;;;;;;15.84;9.10;;;-0.20;99.90;;;-0.53;81.62;98112.72;171024;28;58438;-71
2021/03/23 00:15:18;;;;;;;15.03;9.17;;;-0.20;99.90;;;-0.50;81.75;98115.13;171184;28;1276;-71
2021/03/23 00:15:24;;;;;;;16.72;9.48;;;-0.20;99.90;;;-0.52;81.44;98113.56;167064;28;125181;-71
2021/03/23 00:15:30;;;;;;;17.37;9.80;;;-0.20;99.90;;;-0.47;81.45;98122.84;171974;28;835;-71
2021/03/23 00:15:35;;;;;;;16.63;9.55;;;-0.20;99.90;;;-0.56;81.48;98101.47;172634;28;890;-70
2021/03/23 00:15:45;;;;;;;17.42;9.50;;;-0.20;99.90;;;-0.45;81.67;98117.47;173251;28;1093;-71
2021/03/23 00:15:51;;;;;;;16.89;9.60;;;-0.20;99.90;;;-0.45;81.85;98113.03;166060;28;191430;-71
2021/03/23 00:15:57;;;;;;;15.40;9.17;;;-0.20;99.90;;;-0.42;81.95;98122.56;170371;28;1304;-71
2021/03/23 00:16:04;;;;;;;15.02;9.18;;;-0.20;99.90;;;-0.38;81.68;98117.91;171999;28;898;-71
2021/03/23 00:16:14;;;;;;;14.23;9.23;;;-0.20;99.90;;;-0.44;81.73;98113.88;173374;28;949;-71
2021/03/23 00:16:26;;;;;;;14.32;9.09;;;-0.20;99.90;;;-0.42;81.57;98117.28;164434;28;257012;-71
2021/03/23 00:16:43;;;;;;;14.82;9.13;;;-0.10;99.90;;;-0.42;81.59;98112.00;160607;28;347522;-70
2021/03/23 00:16:49;;;;;;;16.74;8.96;;;-0.10;99.90;;;-0.50;81.75;98096.63;160232;28;322030;-71
2021/03/23 00:16:55;;;;;;;18.05;9.20;;;-0.10;99.90;;;-0.44;81.46;98109.44;172213;28;1350;-70
2021/03/23 00:17:01;;;;;;;17.75;9.48;;;-0.10;99.90;;;-0.38;81.78;98124.06;172515;28;1001;-71
2021/03/23 00:17:07;;;;;;;17.40;9.63;;;-0.20;99.90;;;-0.39;81.54;98119.72;171913;28;859;-71
2021/03/23 00:17:13;;;;;;;15.98;9.75;;;-0.20;99.90;;;-0.38;81.38;98126.69;171902;28;1047;-70
2021/03/23 00:17:20;;;;;;;15.82;9.85;;;-0.10;99.90;;;-0.37;81.52;98125.75;171384;28;872;-71
2021/03/23 00:17:25;;;;;;;15.73;9.60;;;-0.10;99.90;;;-0.41;81.39;98108.38;170430;29;1127;-71
2021/03/23 00:17:31;;;;;;;16.85;9.70;;;-0.20;99.90;;;-0.43;81.62;98116.44;171224;28;946;-71
2021/03/23 00:17:38;;;;;;;16.80;9.77;;;-0.10;99.90;;;-0.44;81.51;98111.25;172360;28;1634;-71
2021/03/23 00:17:44;;;;;;;16.94;9.96;;;-0.20;99.90;;;-0.41;81.30;98123.41;171208;28;61647;-71
2021/03/23 00:17:51;;;;;;;17.33;9.93;;;-0.20;99.90;;;-0.41;81.51;98123.41;172652;28;832;-71
2021/03/23 00:17:57;;;;;;;15.98;10.02;;;-0.20;99.90;;;-0.45;81.67;98112.19;170549;28;60679;-71
2021/03/23 00:18:07;;;;;;;14.98;9.68;;;-0.10;99.90;;;-0.44;81.31;98113.88;171251;28;1068;-71
2021/03/23 00:18:15;;;;;;;14.87;9.23;;;-0.20;99.90;;;-0.46;81.43;98111.34;171217;28;41649;-71
2021/03/23 00:18:21;;;;;;;14.96;8.96;;;-0.20;99.90;;;-0.38;81.33;98125.84;169983;28;58706;-71
2021/03/23 00:18:27;;;;;;;15.00;8.75;;;-0.20;99.90;;;-0.39;81.19;98122.34;171254;28;1033;-71
2021/03/23 00:18:33;;;;;;;14.98;8.85;;;-0.20;99.90;;;-0.46;81.10;98115.78;171888;28;1294;-71
2021/03/23 00:18:41;;;;;;;14.14;8.96;;;-0.20;99.90;;;-0.43;81.38;98118.22;169927;28;58341;-71
2021/03/23 00:18:47;;;;;;;14.94;9.18;;;-0.20;99.90;;;-0.48;81.06;98113.25;169939;28;59435;-71
2021/03/23 00:18:54;;;;;;;14.62;9.08;;;-0.20;99.90;;;-0.49;81.29;98116.84;170557;28;59980;-71
2021/03/23 00:19:01;;;;;;;14.80;9.28;;;-0.20;99.90;;;-0.53;81.10;98117.16;169236;28;58599;-71
2021/03/23 00:19:09;;;;;;;15.83;9.57;;;-0.20;99.90;;;-0.53;81.22;98114.50;171248;28;1631;-71
2021/03/23 00:19:16;;;;;;;15.11;9.44;;;-0.20;99.90;;;-0.53;81.48;98118.00;165863;28;191318;-71
2021/03/23 00:19:22;;;;;;;14.86;9.38;;;-0.20;99.90;;;-0.50;81.68;98123.06;170602;28;59709;-71
2021/03/23 00:19:28;;;;;;;14.83;9.40;;;-0.20;99.90;;;-0.54;81.67;98115.44;172511;28;1148;-71
2021/03/23 00:19:34;;;;;;;14.05;9.02;;;-0.20;99.90;;;-0.53;81.90;98119.78;171215;28;1263;-70
2021/03/23 00:19:40;;;;;;;14.90;9.13;;;-0.20;99.90;;;-0.56;81.69;98107.63;171280;28;879;-71
2021/03/23 00:19:46;;;;;;;15.18;9.07;;;-0.20;99.90;;;-0.50;82.03;98122.22;173259;28;1390;-71
2021/03/23 00:19:51;;;;;;;14.93;9.10;;;-0.20;99.90;;;-0.56;82.00;98110.25;173210;28;1314;-71
2021/03/23 00:19:57;;;;;;;15.38;9.10;;;-0.20;99.90;;;-0.55;81.98;98113.75;172808;28;1494;-70
2021/03/23 00:20:11;;;;;;;16.42;9.13;;;-0.20;99.90;;;-0.56;82.20;98114.69;171917;28;982;-71
2021/03/23 00:20:24;;;;;;;14.91;8.99;;;-0.20;99.90;;;-0.51;82.25;98123.16;161274;28;347769;-71
2021/03/23 00:20:30;;;;;;;14.68;9.18;;;-0.20;99.90;;;-0.58;82.13;98106.88;162194;28;321978;-70
2021/03/23 00:20:37;;;;;;;14.85;9.15;;;-0.20;99.90;;;-0.52;82.13;98105.63;171951;28;1962;-71
2021/03/23 00:20:43;;;;;;;14.58;9.02;;;-0.20;99.90;;;-0.46;82.12;98127.19;171343;28;58606;-71
2021/03/23 00:20:49;;;;;;;15.23;9.05;;;-0.20;99.90;;;-0.48;82.18;98113.25;173985;28;941;-71
2021/03/23 00:20:55;;;;;;;14.68;8.95;;;-0.20;99.90;;;-0.54;82.13;98105.72;173317;28;834;-71
2021/03/23 00:21:02;;;;;;;13.63;8.83;;;-0.20;99.90;;;-0.46;82.49;98118.41;171876;28;1069;-71
2021/03/23 00:21:10;;;;;;;13.54;8.88;;;-0.20;99.90;;;-0.49;82.41;98113.34;169302;28;59570;-71
2021/03/23 00:21:18;;;;;;;13.63;8.98;;;-0.20;99.90;;;-0.43;82.24;98116.44;165423;29;125519;-71
2021/03/23 00:21:26;;;;;;;14.58;8.98;;;-0.20;99.90;;;-0.42;82.19;98117.28;165679;29;128110;-71
2021/03/23 00:21:33;;;;;;;15.33;9.10;;;-0.20;99.90;;;-0.44;82.30;98114.72;167014;28;127082;-71
2021/03/23 00:21:39;;;;;;;16.66;9.30;;;-0.20;99.90;;;-0.47;82.06;98114.91;169973;28;58356;-71
2021/03/23 00:21:45;;;;;;;17.15;9.55;;;-0.10;99.90;;;-0.46;82.06;98111.34;172001;28;1041;-71
2021/03/23 00:21:51;;;;;;;16.77;9.60;;;-0.20;99.90;;;-0.43;82.04;98121.72;172527;28;1278;-71
2021/03/23 00:21:57;;;;;;;15.77;9.33;;;-0.20;99.90;;;-0.48;81.69;98113.25;173339;28;941;-71
2021/03/23 00:22:04;;;;;;;15.05;9.35;;;-0.20;99.90;;;-0.47;81.44;98122.84;173260;28;939;-71
2021/03/23 00:22:10;;;;;;;14.26;9.12;;;-0.20;99.90;;;-0.44;81.54;98119.16;171025;28;61268;-71
2021/03/23 00:22:16;;;;;;;14.13;9.05;;;-0.20;99.90;;;-0.49;81.47;98114.19;173139;28;862;-71
2021/03/23 00:22:22;;;;;;;15.13;9.20;;;-0.20;99.90;;;-0.55;81.92;98106.66;172335;28;1185;-71
2021/03/23 00:22:34;;;;;;;15.40;9.35;;;-0.20;99.90;;;-0.43;82.03;98118.22;171901;28;856;-71
2021/03/23 00:22:40;;;;;;;16.23;9.16;;;-0.20;99.90;;;-0.42;82.49;98114.63;161320;28;347566;-71
2021/03/23 00:22:47;;;;;;;16.40;8.97;;;-0.20;99.90;;;-0.45;82.40;98113.03;172650;28;891;-71
2021/03/23 00:22:52;;;;;;;15.30;8.78;;;-0.10;99.90;;;-0.41;82.28;98116.31;169763;28;61923;-71
2021/03/23 00:22:59;;;;;;;14.77;8.80;;;-0.20;99.90;;;-0.40;82.26;98122.44;171911;28;918;-71
2021/03/23 00:23:07;;;;;;;15.30;8.87;;;-0.20;99.90;;;-0.39;82.53;98122.34;172405;28;906;-71
2021/03/23 00:23:14;;;;;;;14.93;9.08;;;-0.20;99.90;;;-0.45;82.03;98110.38;167019;28;125230;-71
2021/03/23 00:23:20;;;;;;;14.70;9.26;;;-0.20;99.90;;;-0.39;82.08;98118.84;169194;28;59352;-71
2021/03/23 00:23:26;;;;;;;15.00;9.20;;;-0.20;99.90;;;-0.46;82.37;98111.34;171838;28;1303;-71
2021/03/23 00:23:32;;;;;;;15.60;9.17;;;-0.20;99.90;;;-0.44;82.53;98105.94;173120;28;1179;-71
2021/03/23 00:23:39;;;;;;;14.45;9.00;;;-0.20;99.90;;;-0.45;82.09;98107.75;172686;28;941;-71
2021/03/23 00:23:46;;;;;;;15.42;9.04;;;-0.10;99.90;;;-0.44;82.47;98114.72;169838;28;58524;-70
2021/03/23 00:23:53;;;;;;;15.54;8.82;;;-0.10;99.90;;;-0.43;82.34;98110.28;169916;28;59235;-71
2021/03/23 00:23:59;;;;;;;15.87;8.87;;;-0.10;99.90;;;-0.44;82.23;98116.53;171121;28;1779;-71
2021/03/23 00:24:06;;;;;;;17.07;9.27;;;-0.10;99.90;;;-0.45;82.16;98115.69;172627;28;1789;-71
2021/03/23 00:24:12;;;;;;;18.08;9.30;;;-0.20;99.90;;;-0.48;82.53;98115.03;170075;28;62869;-71
2021/03/23 00:24:18;;;;;;;17.77;9.27;;;-0.20;99.90;;;-0.50;82.45;98109.00;172602;28;1065;-71
2021/03/23 00:24:24;;;;;;;18.13;9.32;;;-0.20;99.90;;;-0.50;82.62;98111.66;171842;28;1198;-71
2021/03/23 00:24:30;;;;;;;17.52;9.32;;;-0.10;99.90;;;-0.44;82.36;98119.16;171906;28;942;-71
2021/03/23 00:24:36;;;;;;;15.77;8.93;;;-0.20;99.90;;;-0.46;82.41;98110.47;172587;28;895;-71
2021/03/23 00:24:42;;;;;;;15.30;8.88;;;-0.20;99.90;;;-0.52;82.56;98106.44;171865;28;974;-71
2021/03/23 00:24:48;;;;;;;15.77;8.95;;;-0.20;99.90;;;-0.44;82.47;98116.53;171320;28;974;-71
2021/03/23 00:24:54;;;;;;;15.48;8.93;;;-0.20;99.90;;;-0.44;82.58;98121.81;171706;28;1260;-71
2021/03/23 00:25:00;;;;;;;15.57;9.00;;;-0.20;99.90;;;-0.45;82.25;98125.41;171887;28;863;-71
2021/03/23 00:25:10;;;;;;;15.07;9.07;;;-0.20;99.90;;;-0.50;82.22;98117.78;171934;28;954;-71
2021/03/23 00:25:17;;;;;;;14.08;8.90;;;-0.20;99.90;;;-0.52;82.20;98118.84;160323;28;322198;-71
2021/03/23 00:25:23;;;;;;;13.10;9.07;;;-0.20;99.90;;;-0.54;81.70;98120.75;170678;29;884;-71
2021/03/23 00:25:29;;;;;;;12.50;8.87;;;-0.20;99.90;;;-0.57;81.56;98118.31;170554;29;1853;-71
2021/03/23 00:25:35;;;;;;;12.55;8.70;;;-0.20;99.90;;;-0.63;81.62;98111.63;171294;28;975;-71
2021/03/23 00:25:41;;;;;;;13.46;9.08;;;-0.20;99.90;;;-0.67;81.41;98107.47;169846;28;61908;-71
2021/03/23 00:25:47;;;;;;;13.83;9.20;;;-0.20;99.90;;;-0.61;81.26;98119.44;170484;29;1276;-71
2021/03/23 00:25:54;;;;;;;13.93;9.02;;;-0.20;99.90;;;-0.67;81.66;98110.13;169974;29;939;-71
2021/03/23 00:26:00;;;;;;;14.67;9.17;;;-0.30;99.90;;;-0.69;81.07;98097.97;171206;28;1444;-71
2021/03/23 00:26:07;;;;;;;14.68;9.07;;;-0.20;99.90;;;-0.66;81.50;98118.91;171155;28;7652;-70
2021/03/23 00:26:16;;;;;;;15.78;8.92;;;-0.20;99.90;;;-0.66;81.81;98114.47;168349;28;125251;-71
2021/03/23 00:26:23;;;;;;;15.46;8.91;;;-0.30;99.90;;;-0.58;82.49;98116.63;165439;28;190798;-71
2021/03/23 00:26:30;;;;;;;16.00;9.34;;;-0.30;99.90;;;-0.64;82.19;98106.44;169195;28;59951;-71
2021/03/23 00:26:36;;;;;;;17.10;9.70;;;-0.30;99.90;;;-0.70;82.40;98102.41;172646;28;938;-71
2021/03/23 00:26:42;;;;;;;15.50;9.67;;;-0.30;99.90;;;-0.62;82.22;98113.31;173349;28;958;-71
2021/03/23 00:26:48;;;;;;;15.10;9.70;;;-0.30;99.90;;;-0.63;82.61;98111.63;173312;28;989;-70
2021/03/23 00:26:53;;;;;;;14.98;9.63;;;-0.30;99.90;;;-0.63;82.33;98106.34;171865;28;1403;-71
2021/03/23 00:26:59;;;;;;;14.07;9.20;;;-0.30;99.90;;;-0.61;82.43;98106.22;172563;28;981;-71
2021/03/23 00:27:07;;;;;;;12.77;9.10;;;-0.30;99.90;;;-0.54;82.71;98118.09;172505;28;1426;-71
2021/03/23 00:27:13;;;;;;;13.02;9.06;;;-0.30;99.90;;;-0.51;82.76;98123.16;170600;28;59599;-71
2021/03/23 00:27:19;;;;;;;13.27;8.85;;;-0.30;99.90;;;-0.51;82.70;98120.53;172616;28;1152;-71
2021/03/23 00:27:25;;;;;;;14.35;9.00;;;-0.30;99.90;;;-0.53;82.69;98111.88;171081;28;1528;-71
2021/03/23 00:27:31;;;;;;;15.15;9.27;;;-0.30;99.90;;;-0.52;82.62;98121.50;171866;28;1213;-70
2021/03/23 00:27:38;;;;;;;16.02;9.45;;;-0.30;99.90;;;-0.59;82.41;98110.47;171165;28;1215;-71
2021/03/23 00:27:44;;;;;;;16.10;9.36;;;-0.20;99.90;;;-0.60;82.41;98106.13;169197;28;60873;-70
2021/03/23 00:27:50;;;;;;;16.10;9.23;;;-0.30;99.90;;;-0.59;82.12;98121.06;173237;28;1477;-71
2021/03/23 00:27:56;;;;;;;15.62;9.08;;;-0.30;99.90;;;-0.65;81.82;98115.31;171355;28;57545;-71
2021/03/23 00:28:05;;;;;;;15.93;9.15;;;-0.30;99.90;;;-0.64;81.73;98117.03;172630;28;867;-71
2021/03/23 00:28:11;;;;;;;16.30;8.94;;;-0.30;99.90;;;-0.68;81.48;98112.91;165495;28;190829;-71
2021/03/23 00:28:19;;;;;;;16.55;9.27;;;-0.30;99.90;;;-0.69;81.42;98112.03;171332;28;954;-71
2021/03/23 00:28:25;;;;;;;17.38;9.68;;;-0.30;99.90;;;-0.66;81.56;98124.19;168313;28;125125;-71
2021/03/23 00:28:32;;;;;;;16.65;9.52;;;-0.30;99.90;;;-0.70;81.47;98122.72;173276;28;1197;-71
2021/03/23 00:28:39;;;;;;;15.00;9.60;;;-0.30;99.90;;;-0.70;81.33;98117.41;172030;28;958;-71
2021/03/23 00:28:48;;;;;;;15.07;9.47;;;-0.30;99.90;;;-0.74;81.28;98113.28;172033;28;962;-71
2021/03/23 00:28:56;;;;;;;15.00;9.19;;;-0.30;99.90;;;-0.73;81.53;98123.78;161905;29;256441;-71
2021/03/23 00:29:02;;;;;;;16.88;9.50;;;-0.30;99.90;;;-0.83;81.45;98098.06;170476;29;934;-71
2021/03/23 00:29:11;;;;;;;17.95;9.55;;;-0.30;99.90;;;-0.77;81.53;98116.13;172798;28;1537;-70
2021/03/23 00:29:17;;;;;;;17.57;9.67;;;-0.30;99.90;;;-0.73;81.50;98123.78;172501;28;969;-71
2021/03/23 00:29:23;;;;;;;18.60;9.57;;;-0.30;99.90;;;-0.73;81.44;98123.78;171850;28;1562;-71
2021/03/23 00:29:29;;;;;;;17.30;9.15;;;-0.30;99.90;;;-0.77;81.89;98114.31;171897;28;927;-70
2021/03/23 00:29:35;;;;;;;16.43;8.80;;;-0.30;99.90;;;-0.75;81.82;98123.03;171278;28;939;-71
2021/03/23 00:29:43;;;;;;;16.90;9.02;;;-0.30;99.90;;;-0.71;81.82;98127.16;172602;28;899;-71
2021/03/23 00:29:49;;;;;;;15.92;8.90;;;-0.40;99.90;;;-0.69;82.22;98122.63;168329;28;125154;-71
2021/03/23 00:29:55;;;;;;;15.63;9.07;;;-0.40;99.90;;;-0.66;82.25;98126.84;171927;28;5632;-71
2021/03/23 00:30:07;;;;;;;16.37;9.23;;;-0.30;99.90;;;-0.65;82.33;98126.75;172643;28;973;-71
2021/03/23 00:30:14;;;;;;;16.14;9.20;;;-0.30;99.90;;;-0.68;82.42;98118.19;157317;29;389471;-71
2021/03/23 00:30:20;;;;;;;16.30;9.36;;;-0.30;99.90;;;-0.70;82.47;98114.78;169291;28;58665;-72
2021/03/23 00:30:27;;;;;;;15.06;9.32;;;-0.30;99.90;;;-0.66;82.44;98114.47;169285;28;59586;-71
2021/03/23 00:30:33;;;;;;;14.57;9.40;;;-0.30;99.90;;;-0.62;82.47;98123.06;171942;28;871;-71
2021/03/23 00:30:39;;;;;;;14.27;9.38;;;-0.30;99.90;;;-0.63;82.71;98121.38;172595;28;934;-71
2021/03/23 00:30:45;;;;;;;14.07;9.20;;;-0.30;99.90;;;-0.65;82.29;98116.16;172671;28;879;-71
2021/03/23 00:30:55;;;;;;;15.15;9.07;;;-0.30;99.90;;;-0.63;82.69;98118.72;172651;28;902;-71
2021/03/23 00:31:02;;;;;;;15.57;9.19;;;-0.30;99.90;;;-0.58;82.73;98130.69;163051;28;256756;-71
2021/03/23 00:31:08;;;;;;;15.62;9.10;;;-0.30;99.90;;;-0.62;82.59;98123.06;169717;28;62427;-71
2021/03/23 00:31:17;;;;;;;15.75;9.23;;;-0.30;99.90;;;-0.61;82.63;98125.59;172635;28;899;-70
2021/03/23 00:31:29;;;;;;;15.97;9.27;;;-0.30;99.90;;;-0.64;82.65;98111.72;166718;28;191120;-71
2021/03/23 00:31:35;;;;;;;17.33;9.46;;;-0.30;99.90;;;-0.65;82.30;98118.81;161447;28;323711;-71
2021/03/23 00:31:41;;;;;;;17.60;9.57;;;-0.30;99.90;;;-0.61;82.68;98122.94;171353;28;16459;-71
2021/03/23 00:31:47;;;;;;;17.27;9.57;;;-0.30;99.90;;;-0.61;82.80;98122.94;170624;29;927;-71
2021/03/23 00:31:53;;;;;;;16.88;9.43;;;-0.30;99.90;;;-0.61;83.00;98127.38;171275;28;998;-71